logo
Search for airport 
image banner adimage banner adimage banner ad
image banner ad

EHH020 - Bronkhorst

Located in , Netherlands

ICAO - , IATA -

Data provided by Airmate  

General information

Coordinates: N51°59'49" E6°25'49"
Elevation is 53 feet MSL.
 
View others Airports in Gelderland

Operational data

Special qualification required
Current time UTC:
Current local time:
Weather at : EHDL - Arnhem/Deelen ( 39 km )
METAR: EHDL 161855Z AUTO 22005KT 150V270 9999 FEW017 SCT021 BKN025 16/15 Q1012 BLU
View NOTAMs / SUP AIP / TFR affecting this airport [VIEW]
Communications frequencies: [VIEW]

Runways:

Airport contact information

Address: Netherlands

Satellite view of EHH020